createdAt,value
2019-04-19T00:00:36.999Z,79.02
2019-04-19T00:01:45.108Z,79.22
2019-04-19T00:02:41.565Z,79.98
2019-04-19T00:03:38.536Z,80.04
2019-04-19T00:04:41.408Z,80.41
2019-04-19T00:05:40.320Z,81.09
2019-04-19T00:06:39.827Z,81.56
2019-04-19T00:07:39.716Z,80.90
2019-04-19T00:08:55.395Z,82.08
2019-04-19T00:09:46.694Z,80.36
2019-04-19T00:10:44.682Z,80.32
2019-04-19T00:11:44.211Z,79.85
2019-04-19T00:12:46.064Z,80.90
2019-04-19T00:13:36.777Z,79.94
2019-04-19T00:14:36.213Z,81.09
2019-04-19T00:15:37.281Z,81.47
2019-04-19T00:16:36.508Z,80.80
2019-04-19T00:17:38.169Z,80.13
2019-04-19T00:18:43.622Z,80.32
2019-04-19T00:19:55.592Z,81.66
2019-04-19T00:20:59.871Z,81.95
2019-04-19T00:21:57.971Z,81.85
2019-04-19T00:22:55.421Z,82.38
2019-04-19T00:23:41.274Z,83.14
2019-04-19T00:24:36.122Z,84.20
2019-04-19T00:25:36.682Z,85.53
2019-04-19T00:26:36.105Z,87.15
2019-04-19T00:27:44.369Z,87.54
2019-04-19T00:28:44.148Z,87.63
2019-04-19T00:29:45.952Z,89.64
2019-04-19T00:30:48.906Z,87.82
2019-04-19T00:31:45.157Z,90.59
2019-04-19T00:32:53.647Z,86.49
2019-04-19T00:33:41.670Z,87.15
2019-04-19T00:34:36.027Z,87.82
2019-04-19T00:35:36.798Z,86.87
2019-04-19T00:36:36.311Z,87.73
2019-04-19T00:37:36.536Z,88.40
2019-04-19T00:38:49.026Z,85.91
2019-04-19T00:39:47.883Z,86.68
2019-04-19T00:40:47.312Z,86.10
2019-04-19T00:41:56.749Z,86.01
2019-04-19T00:42:47.958Z,86.30
2019-04-19T00:43:49.885Z,87.82
2019-04-19T00:44:56.759Z,88.49
2019-04-19T00:45:49.525Z,87.92
2019-04-19T00:46:58.795Z,86.63
2019-04-19T00:47:51.475Z,86.63
2019-04-19T00:48:54.323Z,88.07
2019-04-19T00:49:54.096Z,87.78
2019-04-19T00:50:54.157Z,86.44
2019-04-19T00:51:53.110Z,88.07
2019-04-19T00:52:55.735Z,89.59
2019-04-19T00:53:43.856Z,88.73
2019-04-19T00:54:49.276Z,86.92
2019-04-19T00:55:48.613Z,87.49
2019-04-19T00:56:46.656Z,88.73
2019-04-19T00:57:42.341Z,88.73
2019-04-19T00:58:37.461Z,89.40
2019-04-19T00:59:40.539Z,89.88
2019-04-19T01:00:38.620Z,89.59
2019-04-19T01:01:35.770Z,90.55
2019-04-19T01:02:42.039Z,89.88
2019-04-19T01:03:40.944Z,89.12
2019-04-19T01:04:37.579Z,89.78
2019-04-19T01:05:46.129Z,91.78
2019-04-19T01:06:46.354Z,91.88
2019-04-19T01:07:38.706Z,91.69
2019-04-19T01:08:48.985Z,88.92
2019-04-19T01:09:46.387Z,92.26
2019-04-19T01:10:48.446Z,89.12
2019-04-19T01:11:51.652Z,85.68
2019-04-19T01:12:52.663Z,86.92
2019-04-19T01:13:50.713Z,88.73
2019-04-19T01:14:45.115Z,90.93
2019-04-19T01:15:51.054Z,89.31
2019-04-19T01:16:50.698Z,89.31
2019-04-19T01:17:53.952Z,89.78
2019-04-19T01:18:45.500Z,91.02
2019-04-19T01:19:39.038Z,89.50
2019-04-19T01:20:35.585Z,88.64
2019-04-19T01:21:36.447Z,88.35
2019-04-19T01:22:36.236Z,87.87
2019-04-19T01:23:43.278Z,89.40
2019-04-19T01:24:41.173Z,90.83
2019-04-19T01:25:35.538Z,90.83
2019-04-19T01:26:40.841Z,92.07
2019-04-19T01:27:36.461Z,92.88
2019-04-19T01:28:35.513Z,92.98
2019-04-19T01:29:40.493Z,93.08
2019-04-19T01:30:39.867Z,93.17
2019-04-19T01:31:35.643Z,94.03
2019-04-19T01:32:47.066Z,94.03
2019-04-19T01:33:39.390Z,94.41
2019-04-19T01:34:35.730Z,96.22
2019-04-19T01:35:43.363Z,95.56
2019-04-19T01:36:39.084Z,96.32
2019-04-19T01:37:35.419Z,97.27
2019-04-19T01:38:40.877Z,97.17
2019-04-19T01:39:55.881Z,97.56
2019-04-19T01:40:59.188Z,98.61
2019-04-19T01:41:47.832Z,97.66
2019-04-19T01:42:50.295Z,98.08
2019-04-19T01:43:52.067Z,97.94
2019-04-19T01:44:54.741Z,98.65
2019-04-19T01:45:56.820Z,97.94
2019-04-19T01:46:52.443Z,98.51
2019-04-19T01:47:52.874Z,97.66
2019-04-19T01:48:50.618Z,98.94
2019-04-19T01:49:49.342Z,98.51
2019-04-19T01:50:50.724Z,98.94
2019-04-19T01:51:51.225Z,99.41
2019-04-19T01:52:58.125Z,99.22
2019-04-19T01:53:50.290Z,99.99
2019-04-19T01:54:49.065Z,99.99
2019-04-19T01:55:38.956Z,99.70
2019-04-19T01:56:38.780Z,99.99
2019-04-19T01:57:36.549Z,99.99
2019-04-19T01:58:38.058Z,99.99
2019-04-19T01:59:40.653Z,99.99
2019-04-19T02:00:43.943Z,99.99
2019-04-19T02:01:36.206Z,99.99
2019-04-19T02:02:37.811Z,99.99
2019-04-19T02:03:38.872Z,99.99
2019-04-19T02:04:36.568Z,99.99
2019-04-19T02:05:42.296Z,99.99
2019-04-19T02:06:39.534Z,99.99
2019-04-19T02:07:37.083Z,99.99
2019-04-19T02:08:41.172Z,99.99
2019-04-19T02:09:52.865Z,99.99
2019-04-19T02:10:43.962Z,99.99
2019-04-19T02:11:46.551Z,99.99
2019-04-19T02:12:45.146Z,99.99
2019-04-19T02:13:46.047Z,99.99
2019-04-19T02:14:45.213Z,99.99
2019-04-19T02:15:41.604Z,99.99
2019-04-19T02:16:36.342Z,99.99
2019-04-19T02:17:43.112Z,99.99
2019-04-19T02:18:35.518Z,99.99
2019-04-19T02:19:36.803Z,99.99
2019-04-19T02:20:40.613Z,99.99
2019-04-19T02:21:38.201Z,99.99
2019-04-19T02:22:38.259Z,99.94
2019-04-19T02:23:41.660Z,99.99
2019-04-19T02:24:40.301Z,99.41
2019-04-19T02:25:35.396Z,99.60
2019-04-19T02:26:40.565Z,99.04
2019-04-19T02:27:40.487Z,99.99
2019-04-19T02:28:38.114Z,99.99
2019-04-19T02:29:36.493Z,99.99
2019-04-19T02:30:49.711Z,99.99
2019-04-19T02:32:00.903Z,99.99
2019-04-19T02:32:50.898Z,99.99
2019-04-19T02:34:11.316Z,99.99
2019-04-19T02:34:58.794Z,99.99
2019-04-19T02:36:03.909Z,99.99
2019-04-19T02:37:08.289Z,99.99
2019-04-19T02:38:01.592Z,99.99
2019-04-19T02:41:02.706Z,99.99
2019-04-19T02:42:09.879Z,99.99
2019-04-19T02:43:03.298Z,99.99
2019-04-19T02:44:12.637Z,99.99
2019-04-19T02:46:16.055Z,99.99
2019-04-19T02:47:07.155Z,99.99
2019-04-19T02:47:55.908Z,99.99
2019-04-19T02:49:20.170Z,99.99
2019-04-19T02:50:04.341Z,99.99
2019-04-19T02:52:02.060Z,99.99
2019-04-19T02:53:02.175Z,99.99
2019-04-19T02:54:04.276Z,99.99
2019-04-19T02:56:11.274Z,99.99
2019-04-19T02:57:23.101Z,99.99
2019-04-19T02:58:00.891Z,99.99
2019-04-19T02:59:18.510Z,99.99
2019-04-19T03:00:03.895Z,99.99
2019-04-19T03:02:22.051Z,99.99
2019-04-19T03:03:21.515Z,99.99
2019-04-19T03:04:14.457Z,99.99
2019-04-19T03:06:04.941Z,99.99
2019-04-19T03:06:44.662Z,99.99
2019-04-19T03:07:34.557Z,99.99
2019-04-19T03:08:35.502Z,99.99
2019-04-19T03:09:39.247Z,99.99
2019-04-19T03:10:49.925Z,99.99
2019-04-19T03:11:53.297Z,99.99
2019-04-19T03:12:53.904Z,99.99
2019-04-19T03:13:46.396Z,99.99
2019-04-19T03:15:07.515Z,99.99
2019-04-19T03:15:50.741Z,99.99
2019-04-19T03:16:51.171Z,99.99
2019-04-19T03:17:51.795Z,99.99
2019-04-19T03:18:45.071Z,99.99
2019-04-19T03:19:52.680Z,99.99
2019-04-19T03:20:49.470Z,99.99
2019-04-19T03:21:48.939Z,99.99
2019-04-19T03:22:49.449Z,99.99
2019-04-19T03:23:48.000Z,99.99
2019-04-19T03:24:55.942Z,99.99
2019-04-19T03:25:45.266Z,99.99
2019-04-19T03:26:45.918Z,99.99
2019-04-19T03:27:47.151Z,99.99
2019-04-19T03:28:42.627Z,99.99
2019-04-19T03:29:39.061Z,99.99
2019-04-19T03:31:05.747Z,99.99
2019-04-19T03:34:11.636Z,99.99
2019-04-19T03:35:05.161Z,99.99
2019-04-19T03:35:56.814Z,99.99
2019-04-19T03:36:49.062Z,99.99
2019-04-19T03:37:58.659Z,99.99
2019-04-19T03:38:47.192Z,99.99
2019-04-19T03:40:00.284Z,99.99
2019-04-19T03:40:51.398Z,99.99
2019-04-19T03:42:49.229Z,99.99
2019-04-19T03:43:55.390Z,99.99
2019-04-19T03:44:50.958Z,99.99
2019-04-19T03:45:56.462Z,99.99
2019-04-19T03:46:57.981Z,99.99
2019-04-19T03:48:01.514Z,99.99
2019-04-19T03:49:08.605Z,99.99
2019-04-19T03:49:52.491Z,99.99
2019-04-19T03:50:56.772Z,99.99
2019-04-19T03:52:04.322Z,99.99
2019-04-19T03:52:48.771Z,99.99
2019-04-19T03:53:56.153Z,99.99
2019-04-19T03:54:48.513Z,99.99
2019-04-19T03:56:01.589Z,99.99
2019-04-19T03:56:49.493Z,99.99
2019-04-19T03:57:45.722Z,99.99
2019-04-19T03:58:34.115Z,99.99
2019-04-19T03:59:35.201Z,99.99
2019-04-19T04:00:34.288Z,99.99
2019-04-19T04:01:40.232Z,99.99
2019-04-19T04:02:36.846Z,99.99
2019-04-19T04:03:38.410Z,99.99
2019-04-19T04:04:35.296Z,99.99
2019-04-19T04:05:40.034Z,99.99
2019-04-19T04:06:38.929Z,99.99
2019-04-19T04:07:35.268Z,99.99
2019-04-19T04:08:38.185Z,99.99
2019-04-19T04:09:40.599Z,99.99
2019-04-19T04:10:38.745Z,99.99
2019-04-19T04:11:34.625Z,99.99
2019-04-19T04:12:44.872Z,99.99
2019-04-19T04:13:46.845Z,99.99
2019-04-19T04:14:49.525Z,99.99
2019-04-19T04:15:48.193Z,99.99
2019-04-19T04:16:40.737Z,99.99
2019-04-19T04:17:33.739Z,99.99
2019-04-19T04:18:34.318Z,99.99
2019-04-19T04:19:33.714Z,99.99
2019-04-19T04:20:35.257Z,99.99
2019-04-19T04:21:40.100Z,99.99
2019-04-19T04:22:38.369Z,99.99
2019-04-19T04:23:39.166Z,99.99
2019-04-19T04:24:39.869Z,99.99
2019-04-19T04:25:44.199Z,99.99
2019-04-19T04:26:47.450Z,99.99
2019-04-19T04:27:46.525Z,99.99
2019-04-19T04:28:49.321Z,99.99
2019-04-19T04:29:40.994Z,99.99
2019-04-19T04:30:43.943Z,99.99
2019-04-19T04:31:43.376Z,99.99
2019-04-19T04:33:48.247Z,99.99
2019-04-19T04:34:45.698Z,99.99
2019-04-19T04:35:49.099Z,99.99
2019-04-19T04:36:49.644Z,99.99
2019-04-19T04:37:48.233Z,99.99
2019-04-19T04:38:38.405Z,99.99
2019-04-19T04:39:34.503Z,99.99
2019-04-19T04:40:33.846Z,99.99
2019-04-19T04:41:35.679Z,99.99
2019-04-19T04:42:39.515Z,99.99
2019-04-19T04:43:43.452Z,99.99
2019-04-19T04:45:00.196Z,99.99
2019-04-19T04:46:04.912Z,99.99
2019-04-19T04:46:59.168Z,99.99
2019-04-19T04:47:47.560Z,99.99
2019-04-19T04:48:53.048Z,99.99
2019-04-19T04:49:53.609Z,99.99
2019-04-19T04:50:57.697Z,99.99
2019-04-19T04:51:47.976Z,99.99
2019-04-19T04:52:38.704Z,99.99
2019-04-19T04:53:34.148Z,99.99
2019-04-19T04:54:33.488Z,99.99
2019-04-19T04:55:37.885Z,99.99
2019-04-19T04:56:45.722Z,99.99
2019-04-19T04:57:42.590Z,99.99
2019-04-19T04:58:38.562Z,99.99
2019-04-19T04:59:35.004Z,99.99
2019-04-19T05:00:41.595Z,99.99
2019-04-19T05:01:42.563Z,99.99
2019-04-19T05:02:52.261Z,99.99
2019-04-19T05:03:48.758Z,99.99
2019-04-19T05:04:43.520Z,99.99
2019-04-19T05:05:50.054Z,99.99
2019-04-19T05:06:54.308Z,99.99
2019-04-19T05:08:00.061Z,99.99
2019-04-19T05:08:50.110Z,99.99
2019-04-19T05:09:53.305Z,99.99
2019-04-19T05:10:49.342Z,99.99
2019-04-19T05:11:56.747Z,99.99
2019-04-19T05:13:57.560Z,99.99
2019-04-19T05:14:51.180Z,99.99
2019-04-19T05:15:52.828Z,99.99
2019-04-19T05:17:10.346Z,99.99
2019-04-19T05:17:58.390Z,99.99
2019-04-19T05:18:52.345Z,99.99
2019-04-19T05:19:58.428Z,99.99
2019-04-19T05:20:48.126Z,99.99
2019-04-19T05:21:50.873Z,99.99
2019-04-19T05:22:53.510Z,99.99
2019-04-19T05:23:55.739Z,99.99
2019-04-19T05:24:59.598Z,99.99
2019-04-19T05:25:52.005Z,99.99
2019-04-19T05:27:04.312Z,99.99
2019-04-19T05:27:52.506Z,99.99
2019-04-19T05:28:52.541Z,99.99
2019-04-19T05:29:39.867Z,99.99
2019-04-19T05:30:42.274Z,99.99
2019-04-19T05:31:42.385Z,99.99
2019-04-19T05:32:35.861Z,99.99
2019-04-19T05:33:47.776Z,99.99
2019-04-19T05:34:51.466Z,99.99
2019-04-19T05:35:55.450Z,99.99
2019-04-19T05:36:53.556Z,99.99
2019-04-19T05:37:50.247Z,99.71
2019-04-19T05:39:02.647Z,99.99
2019-04-19T05:39:55.852Z,99.99
2019-04-19T05:40:46.499Z,98.47
2019-04-19T05:41:51.478Z,96.84
2019-04-19T05:42:50.376Z,98.71
2019-04-19T05:44:05.192Z,99.85
2019-04-19T05:45:03.461Z,98.42
2019-04-19T05:45:58.042Z,99.99
2019-04-19T05:46:56.851Z,98.61
2019-04-19T05:47:43.939Z,98.42
2019-04-19T05:48:42.407Z,97.75
2019-04-19T05:49:52.433Z,95.46
2019-04-19T05:50:57.570Z,94.22
2019-04-19T05:51:51.196Z,94.22
2019-04-19T05:52:50.318Z,94.03
2019-04-19T05:53:40.712Z,91.93
2019-04-19T05:54:32.698Z,91.74
2019-04-19T05:55:32.716Z,89.87
2019-04-19T05:56:32.960Z,91.11
2019-04-19T05:57:50.376Z,90.92
2019-04-19T05:58:49.059Z,89.59
2019-04-19T05:59:44.591Z,89.59
2019-04-19T06:00:47.339Z,88.63
2019-04-19T06:01:52.197Z,87.87
2019-04-19T06:02:43.588Z,89.59
2019-04-19T06:03:50.474Z,88.44
2019-04-19T06:05:01.361Z,88.63
2019-04-19T06:06:01.138Z,86.15
2019-04-19T06:06:52.291Z,86.15
2019-04-19T06:07:45.713Z,86.38
2019-04-19T06:08:35.867Z,85.52
2019-04-19T06:09:32.658Z,84.66
2019-04-19T06:10:42.685Z,84.28
2019-04-19T06:11:36.117Z,84.28
2019-04-19T06:12:36.924Z,85.33
2019-04-19T06:13:38.234Z,86.00
2019-04-19T06:14:58.213Z,83.51
2019-04-19T06:15:53.928Z,82.94
2019-04-19T06:16:46.876Z,82.75
2019-04-19T06:17:50.820Z,82.65
2019-04-19T06:18:46.108Z,84.66
2019-04-19T06:19:48.131Z,83.61
2019-04-19T06:20:50.050Z,83.75
2019-04-19T06:21:46.310Z,83.46
2019-04-19T06:22:56.717Z,82.79
2019-04-19T06:23:54.110Z,82.79
2019-04-19T06:24:53.251Z,81.55
2019-04-19T06:25:58.446Z,79.83
2019-04-19T06:27:00.886Z,80.11
2019-04-19T06:29:01.668Z,81.36
2019-04-19T06:29:58.862Z,80.50
2019-04-19T06:30:52.063Z,79.64
2019-04-19T06:31:58.515Z,80.21
2019-04-19T06:33:00.887Z,79.25
2019-04-19T06:33:53.393Z,80.11
2019-04-19T06:34:49.660Z,79.73
2019-04-19T06:35:41.645Z,81.59
2019-04-19T06:36:33.362Z,81.30
2019-04-19T06:37:34.210Z,79.29
2019-04-19T06:38:33.036Z,78.91
2019-04-19T06:39:33.182Z,80.25
2019-04-19T06:40:35.860Z,79.96
2019-04-19T06:41:43.710Z,80.35
2019-04-19T06:42:43.137Z,79.77
2019-04-19T06:43:44.975Z,78.86
2019-04-19T06:44:51.794Z,79.52
2019-04-19T06:45:50.482Z,80.87
2019-04-19T06:46:48.685Z,79.14
2019-04-19T06:47:38.945Z,78.47
2019-04-19T06:48:35.428Z,80.00
2019-04-19T06:49:33.118Z,77.51
2019-04-19T06:50:38.502Z,77.36
2019-04-19T06:51:41.925Z,78.32
2019-04-19T06:52:35.921Z,77.26
2019-04-19T06:53:41.041Z,75.93
2019-04-19T06:54:38.305Z,74.87
2019-04-19T06:55:36.634Z,75.35
2019-04-19T06:56:37.176Z,74.68
2019-04-19T06:57:37.413Z,75.16
2019-04-19T06:58:42.276Z,74.68
2019-04-19T06:59:47.823Z,75.45
2019-04-19T07:00:47.034Z,75.93
2019-04-19T07:01:39.415Z,75.58
2019-04-19T07:02:32.833Z,75.39
2019-04-19T07:03:32.280Z,73.47
2019-04-19T07:04:32.108Z,73.28
2019-04-19T07:05:43.140Z,72.80
2019-04-19T07:06:49.038Z,72.03
2019-04-19T07:07:53.952Z,73.09
2019-04-19T07:10:01.518Z,72.61
2019-04-19T07:10:56.239Z,71.84
2019-04-19T07:12:53.735Z,71.17
2019-04-19T07:13:40.448Z,71.84
2019-04-19T07:14:35.018Z,71.27
2019-04-19T07:15:57.890Z,71.66
2019-04-19T07:16:51.435Z,73.13
2019-04-19T07:17:47.423Z,71.56
2019-04-19T07:18:42.430Z,70.64
2019-04-19T07:19:51.563Z,70.92
2019-04-19T07:20:54.729Z,70.06
2019-04-19T07:21:48.261Z,69.96
2019-04-19T07:22:50.397Z,70.54
2019-04-19T07:23:50.500Z,70.44
2019-04-19T07:24:53.722Z,69.96
2019-04-19T07:25:53.997Z,69.01
2019-04-19T07:26:56.306Z,69.58
2019-04-19T07:27:44.376Z,68.91
2019-04-19T07:28:35.089Z,68.52
2019-04-19T07:29:31.986Z,68.21
2019-04-19T07:30:32.868Z,68.97
2019-04-19T07:31:33.873Z,70.09
2019-04-19T07:32:36.179Z,71.23
2019-04-19T07:33:44.128Z,72.52
2019-04-19T07:34:50.606Z,72.80
2019-04-19T07:35:54.198Z,72.80
2019-04-19T07:36:49.674Z,71.75
2019-04-19T07:37:47.319Z,71.88
2019-04-19T07:38:53.904Z,70.83
2019-04-19T07:40:01.630Z,69.58
2019-04-19T07:40:48.994Z,70.15
2019-04-19T07:41:53.294Z,70.44
2019-04-19T07:42:52.435Z,68.52
2019-04-19T07:43:47.596Z,67.47
2019-04-19T07:44:41.166Z,68.24
2019-04-19T07:45:54.007Z,67.18
2019-04-19T07:46:50.420Z,67.09
2019-04-19T07:47:41.669Z,67.89
2019-04-19T07:48:32.458Z,68.75
2019-04-19T07:49:40.474Z,68.66
2019-04-19T07:50:42.442Z,67.89
2019-04-19T07:51:37.253Z,67.16
2019-04-19T07:52:41.023Z,67.16
2019-04-19T07:53:38.963Z,65.52
2019-04-19T07:54:34.144Z,64.76
2019-04-19T07:55:38.441Z,64.76
2019-04-19T07:59:54.706Z,63.22
2019-04-19T08:01:12.653Z,63.06
2019-04-19T08:02:54.902Z,62.39
2019-04-19T08:04:11.829Z,61.52
2019-04-19T08:07:01.493Z,60.95
2019-04-19T08:08:06.800Z,61.05
2019-04-19T08:08:56.620Z,62.23
2019-04-19T08:10:00.215Z,60.88
2019-04-19T08:11:07.393Z,61.08
2019-04-19T08:12:04.842Z,60.88
2019-04-19T08:13:01.007Z,60.78
2019-04-19T08:14:43.407Z,60.88
2019-04-19T08:14:57.696Z,60.78
2019-04-19T08:15:59.532Z,60.02
2019-04-19T08:17:56.844Z,59.66
2019-04-19T08:27:40.456Z,58.45
2019-04-19T08:28:42.404Z,57.39
2019-04-19T08:29:41.322Z,57.29
2019-04-19T08:30:39.098Z,56.91
2019-04-19T08:31:31.925Z,57.39
2019-04-19T08:32:32.309Z,57.10
2019-04-19T08:33:31.843Z,56.62
2019-04-19T08:34:32.774Z,57.20
2019-04-19T08:35:39.142Z,55.85
2019-04-19T08:36:40.099Z,56.62
2019-04-19T08:37:36.540Z,56.43
2019-04-19T08:38:32.926Z,54.41
2019-04-19T08:39:44.738Z,55.18
2019-04-19T08:40:50.333Z,55.56
2019-04-19T08:41:46.528Z,54.41
2019-04-19T08:42:51.399Z,54.53
2019-04-19T08:43:50.958Z,53.19
2019-04-19T08:44:45.355Z,52.80
2019-04-19T08:45:32.921Z,52.99
2019-04-19T08:46:32.608Z,52.99
2019-04-19T08:47:37.684Z,53.66
2019-04-19T08:48:41.317Z,53.28
2019-04-19T08:49:38.319Z,52.89
2019-04-19T08:50:36.177Z,51.93
2019-04-19T08:51:35.354Z,52.51
2019-04-19T08:52:35.014Z,52.03
2019-04-19T08:53:42.999Z,53.66
2019-04-19T08:54:53.569Z,53.47
2019-04-19T08:55:52.914Z,52.32
2019-04-19T08:56:41.877Z,51.19
2019-04-19T08:57:33.950Z,50.01
2019-04-19T08:58:48.713Z,49.43
2019-04-19T08:59:53.893Z,49.36
2019-04-19T09:01:08.735Z,51.19
2019-04-19T09:01:53.332Z,49.46
2019-04-19T09:02:45.277Z,49.17
2019-04-19T09:03:52.944Z,48.30
2019-04-19T09:04:50.758Z,49.17
2019-04-19T09:06:04.863Z,49.36
2019-04-19T09:07:57.554Z,50.04
2019-04-19T09:08:46.075Z,49.65
2019-04-19T09:10:01.858Z,48.30
2019-04-19T09:10:52.134Z,49.46
2019-04-19T09:11:53.843Z,49.46
2019-04-19T09:13:05.755Z,50.40
2019-04-19T09:13:52.224Z,52.61
2019-04-19T09:14:55.161Z,52.54
2019-04-19T09:15:49.378Z,50.71
2019-04-19T09:16:57.770Z,49.74
2019-04-19T09:18:13.055Z,50.01
2019-04-19T09:18:55.731Z,50.13
2019-04-19T09:20:52.145Z,49.07
2019-04-19T09:21:44.940Z,49.27
2019-04-19T09:22:44.941Z,49.65
2019-04-19T09:23:42.462Z,50.81
2019-04-19T09:24:46.507Z,49.46
2019-04-19T09:25:41.450Z,49.17
2019-04-19T09:26:49.681Z,49.48
2019-04-19T09:27:49.054Z,50.45
2019-04-19T09:28:50.846Z,50.63
2019-04-19T09:29:53.180Z,50.83
2019-04-19T09:30:47.974Z,50.83
2019-04-19T09:31:43.741Z,50.63
2019-04-19T09:32:33.948Z,50.93
2019-04-19T09:33:34.681Z,51.62
2019-04-19T09:34:31.984Z,51.72
2019-04-19T09:35:40.028Z,51.24
2019-04-19T09:36:39.681Z,49.48
2019-04-19T09:37:47.709Z,49.84
2019-04-19T09:38:48.656Z,50.20
2019-04-19T09:39:44.621Z,50.30
2019-04-19T09:40:41.610Z,51.64
2019-04-19T09:41:38.714Z,52.03
2019-04-19T09:42:42.441Z,50.68
2019-04-19T09:43:45.077Z,51.76
2019-04-19T09:44:40.210Z,50.42
2019-04-19T09:45:31.883Z,50.51
2019-04-19T09:46:31.820Z,50.23
2019-04-19T09:47:31.352Z,49.27
2019-04-19T09:48:47.283Z,49.36
2019-04-19T09:49:51.274Z,48.69
2019-04-19T09:50:46.583Z,50.13
2019-04-19T09:51:47.986Z,48.69
2019-04-19T09:52:55.765Z,47.75
2019-04-19T09:53:52.918Z,47.56
2019-04-19T09:54:58.911Z,48.23
2019-04-19T09:55:52.381Z,49.29
2019-04-19T09:56:50.762Z,49.41
2019-04-19T09:57:51.757Z,48.93
2019-04-19T09:58:46.707Z,46.91
2019-04-19T09:59:36.167Z,48.44
2019-04-19T10:00:32.383Z,48.25
2019-04-19T10:01:37.098Z,48.38
2019-04-19T10:02:36.051Z,49.34
2019-04-19T10:03:40.149Z,49.15
2019-04-19T10:04:31.622Z,47.92
2019-04-19T10:05:31.079Z,46.66
2019-04-19T10:06:31.073Z,45.03
2019-04-19T10:07:31.072Z,46.47
2019-04-19T10:08:32.149Z,46.86
2019-04-19T10:09:31.075Z,43.65
2019-04-19T10:10:31.310Z,44.13
2019-04-19T10:11:31.051Z,44.13
2019-04-19T10:12:31.353Z,44.90
2019-04-19T10:13:32.052Z,45.29
2019-04-19T10:14:31.039Z,45.58
2019-04-19T10:15:32.093Z,45.10
2019-04-19T10:16:31.034Z,45.20
2019-04-19T10:17:31.062Z,45.07
2019-04-19T10:18:42.759Z,46.23
2019-04-19T10:19:31.021Z,46.04
2019-04-19T10:20:31.019Z,46.25
2019-04-19T10:21:33.643Z,46.64
2019-04-19T10:22:31.008Z,47.70
2019-04-19T10:23:31.554Z,48.08
2019-04-19T10:24:31.456Z,49.05
2019-04-19T10:25:30.997Z,49.15
2019-04-19T10:26:32.035Z,46.73
2019-04-19T10:27:31.367Z,46.83
2019-04-19T10:28:32.183Z,47.03
2019-04-19T10:29:35.258Z,47.03
2019-04-19T10:30:32.143Z,46.06
2019-04-19T10:31:31.436Z,46.15
2019-04-19T10:32:30.979Z,46.83
2019-04-19T10:33:38.987Z,46.93
2019-04-19T10:34:32.324Z,45.87
2019-04-19T10:35:31.502Z,45.20
2019-04-19T10:36:30.962Z,45.21
2019-04-19T10:37:31.577Z,45.03
2019-04-19T10:38:31.690Z,44.45
2019-04-19T10:39:31.959Z,44.66
2019-04-19T10:40:31.455Z,45.14
2019-04-19T10:41:32.130Z,46.11
2019-04-19T10:42:31.511Z,45.14
2019-04-19T10:43:30.924Z,43.98
2019-04-19T10:44:31.955Z,43.60
2019-04-19T10:45:32.038Z,42.15
2019-04-19T10:46:31.079Z,42.36
2019-04-19T10:47:31.752Z,42.61
2019-04-19T10:48:30.902Z,43.48
2019-04-19T10:49:40.188Z,44.71
2019-04-19T10:50:39.507Z,44.62
2019-04-19T10:51:30.895Z,44.13
2019-04-19T10:52:31.273Z,43.38
2019-04-19T10:53:30.886Z,43.94
2019-04-19T10:54:30.882Z,44.06
2019-04-19T10:55:31.887Z,43.77
2019-04-19T10:56:32.194Z,42.61
2019-04-19T10:57:31.492Z,42.42
2019-04-19T10:58:30.866Z,42.32
2019-04-19T10:59:32.165Z,41.84
2019-04-19T11:00:31.414Z,42.44
2019-04-19T11:01:31.723Z,42.44
2019-04-19T11:02:32.027Z,41.86
2019-04-19T11:03:30.896Z,43.98
2019-04-19T11:04:31.175Z,42.15
2019-04-19T11:05:30.839Z,40.80
2019-04-19T11:06:31.425Z,40.92
2019-04-19T11:07:30.831Z,41.98
2019-04-19T11:08:30.870Z,41.69
2019-04-19T11:09:31.152Z,41.98
2019-04-19T11:10:31.563Z,41.98
2019-04-19T11:11:31.850Z,40.44
2019-04-19T11:12:32.171Z,40.44
2019-04-19T11:13:32.063Z,40.44
2019-04-19T11:14:30.806Z,40.92
2019-04-19T11:15:30.837Z,40.44
2019-04-19T11:16:31.166Z,40.53
2019-04-19T11:17:31.732Z,41.23
2019-04-19T11:18:31.778Z,39.78
2019-04-19T11:19:47.093Z,39.49
2019-04-19T11:20:39.873Z,41.91
2019-04-19T11:21:31.739Z,40.94
2019-04-19T11:22:32.053Z,40.94
2019-04-19T11:23:31.514Z,40.36
2019-04-19T11:24:31.885Z,39.01
2019-04-19T11:25:30.772Z,37.65
2019-04-19T11:26:30.764Z,37.46
2019-04-19T11:27:31.120Z,37.85
2019-04-19T11:28:31.304Z,38.54
2019-04-19T11:29:30.758Z,38.93
2019-04-19T11:30:30.911Z,40.47
2019-04-19T11:31:31.827Z,38.35
2019-04-19T11:32:30.750Z,38.64
2019-04-19T11:33:31.019Z,39.61
2019-04-19T11:34:31.326Z,40.47
2019-04-19T11:35:31.645Z,39.61
2019-04-19T11:36:31.460Z,38.64
2019-04-19T11:37:30.738Z,37.70
2019-04-19T11:38:31.377Z,37.70
2019-04-19T11:39:30.736Z,38.08
2019-04-19T11:40:31.068Z,38.66
2019-04-19T11:41:31.270Z,37.50
2019-04-19T11:42:31.063Z,37.40
2019-04-19T11:43:31.511Z,37.21
2019-04-19T11:44:31.470Z,36.94
2019-04-19T11:45:30.708Z,37.32
2019-04-19T11:46:31.838Z,36.46
2019-04-19T11:47:31.112Z,36.55
2019-04-19T11:48:32.993Z,36.94
2019-04-19T11:49:35.441Z,35.58
2019-04-19T11:50:31.665Z,35.47
2019-04-19T11:51:32.018Z,36.72
2019-04-19T11:52:30.690Z,36.15
2019-04-19T11:53:30.684Z,36.34
2019-04-19T11:54:30.682Z,36.36
2019-04-19T11:55:30.742Z,37.32
2019-04-19T11:56:37.799Z,37.04
2019-04-19T11:57:30.677Z,37.42
2019-04-19T11:58:32.809Z,37.71
2019-04-19T11:59:37.517Z,37.63
2019-04-19T12:00:31.670Z,37.24
2019-04-19T12:01:30.668Z,37.24
2019-04-19T12:02:30.776Z,37.34
2019-04-19T12:03:32.113Z,37.24
2019-04-19T12:04:30.659Z,38.12
2019-04-19T12:05:33.805Z,38.21
2019-04-19T12:06:30.655Z,37.73
2019-04-19T12:07:30.652Z,37.15
2019-04-19T12:08:30.830Z,36.96
2019-04-19T12:09:30.649Z,37.65
2019-04-19T12:10:32.707Z,36.20
2019-04-19T12:11:30.641Z,35.89
2019-04-19T12:12:30.841Z,36.76
2019-04-19T12:13:32.524Z,36.86
2019-04-19T12:14:31.545Z,36.86
2019-04-19T12:15:31.128Z,38.02
2019-04-19T12:16:30.914Z,38.50
2019-04-19T12:17:31.340Z,37.44
2019-04-19T12:18:30.626Z,38.02
2019-04-19T12:19:40.133Z,37.44
2019-04-19T12:20:31.030Z,36.30
2019-04-19T12:21:31.467Z,36.98
2019-04-19T12:22:30.973Z,35.42
2019-04-19T12:23:30.618Z,34.07
2019-04-19T12:24:30.909Z,32.81
2019-04-19T12:25:30.611Z,33.59
2019-04-19T12:26:31.542Z,33.87
2019-04-19T12:27:31.743Z,33.69
2019-04-19T12:28:30.609Z,33.39
2019-04-19T12:29:38.662Z,32.33
2019-04-19T12:30:31.534Z,32.14
2019-04-19T12:31:31.613Z,32.42
2019-04-19T12:32:30.597Z,32.91
2019-04-19T12:33:31.271Z,33.39
2019-04-19T12:34:30.836Z,33.28
2019-04-19T12:35:31.490Z,33.37
2019-04-19T12:36:31.038Z,31.63
2019-04-19T12:37:31.155Z,33.01
2019-04-19T12:38:30.584Z,32.81
2019-04-19T12:39:30.583Z,32.04
2019-04-19T12:40:31.819Z,31.94
2019-04-19T12:41:30.578Z,32.62
2019-04-19T12:42:31.758Z,32.73
2019-04-19T12:43:31.917Z,33.80
2019-04-19T12:44:31.094Z,33.80
2019-04-19T12:45:30.573Z,32.54
2019-04-19T12:46:30.915Z,33.22
2019-04-19T12:47:31.112Z,34.19
2019-04-19T12:48:31.876Z,33.02
2019-04-19T12:49:31.030Z,32.64
2019-04-19T12:50:32.947Z,33.12
2019-04-19T12:51:30.558Z,33.31
2019-04-19T12:52:31.295Z,33.31
2019-04-19T12:53:30.881Z,34.09
2019-04-19T12:54:30.554Z,34.86
2019-04-19T12:55:30.551Z,35.44
2019-04-19T12:56:31.645Z,35.64
2019-04-19T12:57:30.548Z,36.51
2019-04-19T12:58:30.546Z,36.70
2019-04-19T12:59:31.545Z,36.98
2019-04-19T13:00:30.555Z,36.58
2019-04-19T13:01:30.540Z,36.98
2019-04-19T13:02:31.658Z,36.96
2019-04-19T13:03:31.846Z,36.58
2019-04-19T13:04:30.590Z,36.40
2019-04-19T13:05:31.990Z,36.68
2019-04-19T13:06:31.674Z,36.49
2019-04-19T13:07:31.115Z,36.49
2019-04-19T13:08:30.528Z,35.52
2019-04-19T13:09:30.988Z,35.81
2019-04-19T13:10:31.111Z,35.42
2019-04-19T13:11:30.525Z,35.04
2019-04-19T13:12:30.745Z,34.55
2019-04-19T13:13:31.905Z,34.27
2019-04-19T13:14:30.515Z,33.87
2019-04-19T13:15:30.522Z,33.39
2019-04-19T13:16:30.513Z,33.69
2019-04-19T13:17:30.600Z,33.22
2019-04-19T13:18:30.510Z,33.41
2019-04-19T13:19:31.286Z,33.89
2019-04-19T13:20:33.828Z,34.09
2019-04-19T13:21:30.503Z,34.28
2019-04-19T13:22:30.504Z,33.80
2019-04-19T13:23:30.615Z,33.89
2019-04-19T13:24:30.499Z,34.84
2019-04-19T13:25:31.302Z,34.94